Flight Track Log - Related Links

Times and Time Zones

All times are in EDT time to prevent confusion due to time zone crossing. See the RPA3392 flight status page for this flight to view local times or setup timezone preferences in your user account.

Time Position Orientation Groundspeed Altitude Reporting Facility
EDT Latitude Longitude Course Direction KTS MPH feet Rate Location/Type
Fri 10:39:50 PM 38.8000 -77.0333 83° East 152 175 2,100  Level Potomac TRACON
Fri 10:40:50 PM 38.7500 -77.0167 165° South 227 261 3,600 1,450 Climbing Potomac TRACON
Fri 10:41:00 PM 38.9716 -76.6735 57° Northeast  Level FlightAware Approximate
Fri 10:41:50 PM 38.7500 -76.9500 90° East 290 334 5,000  Level Potomac TRACON
Fri 10:42:00 PM 39.0206 -76.5549 67° East  Level FlightAware Approximate
Fri 10:42:50 PM 38.8167 -76.9000 30° Northeast 287 330 7,700  Level Potomac TRACON
Fri 10:43:00 PM 39.0665 -76.4338 63° Northeast  Level FlightAware Approximate
Fri 10:43:51 PM 38.8736 -76.8342 42° Northeast 295 339 10,600  Level Washington Center
Fri 10:44:00 PM 39.1167 -76.3155 90° East  Level FlightAware Approximate
Fri 10:44:51 PM 38.9183 -76.7361 60° Northeast 294 338 13,100  Level Washington Center
Fri 10:45:00 PM 39.1519 -76.1975 83° East  Level FlightAware Approximate
Fri 10:45:50 PM 38.9631 -76.6381 60° Northeast 304 350 15,900  Level Washington Center
Fri 10:46:52 PM 39.0139 -76.5319 58° Northeast 323 372 17,700 1,377 Climbing Washington Center
Fri 10:47:52 PM 39.0647 -76.4122 61° Northeast 350 403 18,700 1,361 Climbing Washington Center
Fri 10:48:51 PM 39.1219 -76.2872 59° Northeast 382 440 20,400 1,550 Climbing Washington Center
Fri 10:49:52 PM 39.1664 -76.1431 68° East 401 461 21,800 1,328 Climbing Washington Center
Fri 10:50:53 PM 39.1836 -75.9825 82° East 427 491 23,100 1,361 Climbing Washington Center
Fri 10:51:51 PM 39.2258 -75.8353 70° East 432 497 24,500 958 Climbing Washington Center
Fri 10:52:52 PM 39.3175 -75.7203 44° Northeast 432 497 25,000 248 Climbing Washington Center
Fri 10:53:52 PM 39.4053 -75.6022 46° Northeast 437 503 25,000 400 Level Washington Center
Fri 10:54:52 PM 39.4969 -75.4894 43° Northeast 442 509 25,800 1,091 Climbing Washington Center
Fri 10:55:53 PM 39.5864 -75.3708 46° Northeast 447 514 27,200 1,100 Climbing Washington Center
Fri 10:56:52 PM 39.6778 -75.2492 46° Northeast 453 521 28,000 864 Climbing Washington Center
Fri 10:57:51 PM 39.7667 -75.1192 48° Northeast 464 534 28,900 500 Climbing Washington Center
Fri 10:58:52 PM 39.8497 -75.0050 47° Northeast 475 547 29,000 41 Climbing Washington Center
Fri 11:00:17 PM 39.9922 -74.8106 46° Northeast 488 562 29,000  Level New York Center
Fri 11:01:17 PM 40.0822 -74.6803 48° Northeast 481 554 29,000  Level New York Center
Fri 11:02:20 PM 40.1719 -74.5494 48° Northeast 481 554 29,000  Level New York Center
Fri 11:03:18 PM 40.2714 -74.4297 43° Northeast 481 554 29,000  Level New York Center
Fri 11:05:08 PM 40.4608 -74.2211 40° Northeast 473 544 29,000 -106 Level Boston Center
Fri 11:06:08 PM 40.5625 -74.1064 41° Northeast 468 539 28,700 -1,200 Descending Boston Center
Fri 11:07:08 PM 40.6575 -74.0131 37° Northeast 468 539 26,600 -2,250 Descending Boston Center
Fri 11:08:08 PM 40.7569 -73.9033 40° Northeast 468 539 24,200 -1,300 Descending Boston Center
Fri 11:09:08 PM 40.8458 -73.7981 42° Northeast 448 516 24,000 -100 Descending Boston Center
Fri 11:10:08 PM 40.9431 -73.6739 44° Northeast 434 499 24,000 -500 Level Boston Center
Fri 11:11:08 PM 41.0256 -73.5792 41° Northeast 434 499 23,000 -500 Descending Boston Center
Fri 11:12:08 PM 41.1344 -73.5067 27° Northeast 418 481 23,000 -400 Level Boston Center
Fri 11:13:08 PM 41.2386 -73.5222 354° North 370 426 22,200 -1,150 Descending Boston Center
Fri 11:14:08 PM 41.3425 -73.5433 351° North 365 420 20,700 -1,100 Descending Boston Center
Fri 11:15:08 PM 41.4467 -73.5589 354° North 365 420 20,000 -450 Descending Boston Center
Fri 11:16:08 PM 41.5444 -73.5828 350° North 365 420 19,800 -700 Descending Boston Center
Fri 11:17:08 PM 41.6464 -73.5986 353° North 365 420 18,600 -1,050 Descending Boston Center
Fri 11:18:08 PM 41.7358 -73.6169 351° North 365 420 17,700 -1,100 Descending Boston Center
Fri 11:19:08 PM 41.8458 -73.6356 353° North 360 414 16,400 -1,200 Descending Boston Center
Fri 11:20:08 PM 41.9333 -73.6511 352° North 354 407 15,300 -1,154 Descending Boston Center
Fri 11:20:52 PM 42.0125 -73.6667 352° North 351 404 14,400 -1,200 Descending Boston Center
Fri 11:21:08 PM 42.0372 -73.6700 354° North 349 402 14,100 -1,800 Descending Boston Center
Fri 11:21:52 PM 42.1039 -73.6881 349° North 341 392 12,600 -1,900 Descending Boston Center
Fri 11:22:08 PM 42.1331 -73.6914 355° North 349 402 12,200 -1,869 Descending Boston Center
Fri 11:22:53 PM 42.2036 -73.7097 349° North 329 379 10,700 -1,100 Descending Boston Center
Fri 11:23:08 PM 42.2161 -73.7128 350° North 349 402 11,100 -787 Climbing Boston Center
Fri 11:23:54 PM 42.2806 -73.7225 354° North 275 316 9,900 -1,981 Descending Boston Center
Fri 11:24:54 PM 42.3533 -73.7408 349° North 258 297 7,600 -1,983 Descending Boston Center
Fri 11:25:55 PM 42.4283 -73.7536 353° North 273 314 5,900 -1,721 Descending Boston Center
Fri 11:26:56 PM 42.5031 -73.7694 351° North 273 314 4,100 -1,587 Descending Boston Center
Fri 11:27:56 PM 42.5717 -73.7850 351° North 247 284 2,700 -1,400 Descending Boston Center

Login

Don't have an account? Register now (free) for customized features, flight alerts, and more!